Airfield :
LOGIN :

Register | Disclaimer

   EN    FR    IT 

 










Legend :    VFR   Marginal VFR   IFR   Intensive IFR   Very Intensive IFR
Visi :
Ceiling :
>= 8 km
>= 3000ft
5 to 8 km
1000 to 3000 ft
1500m to 5 km
500 to 1000 ft
800 to 1500m
200 to 500 ft
< 800m
< 200 ft
Symbols :   Thunderstorms  Fog  Heavy snow  Heavy precipitations  Wind > 20 kt
SIGMETs :     Misc.  Thunderstorms  Icing  Turbulence  Mountain Waves  Volcanic Ashes






- Airport Elevation : 242 ft
- IATA code : DUB


EIDW - Dublin

CURRENT METAR :
  • 221330Z 28013KT 9999 FEW007 BKN018 12/07 Q1022 NOSIG

EXPIRED METARs :
  • 221300Z 27012KT 230V290 9999 FEW007 BKN018 13/07 Q1021 NOSIG
  • 221230Z 27013KT 9999 FEW007 BKN018 12/07 Q1022 NOSIG
  • 221200Z 27015KT 9999 FEW007 BKN018 11/08 Q1022 NOSIG
  • 221130Z 27014KT 210V290 9999 FEW007 BKN018 11/08 Q1022 NOSIG
  • 221100Z 27013KT 9999 FEW007 BKN018 11/08 Q1021 NOSIG

TAF TAF EIDW
Valid from the 22 at 12:00 until the 23 at 12:00 UTC


221100Z 2212/2312 27012KT 9999 FEW014 BKN030
BECMG 2215/2217 27006KT
BECMG 2217/2219 22007KT
BECMG 2223/2301 17007KT
BECMG 2307/2309 19015G25KT



MET'MAP, your aeronautical weather chart ! - Copyright ORBIFLY December 2007 - Disclaimer

ORBIFLY MET'MAP TEAM :

Programming & Development : Alexandra Zaïnal
Concept & original design : Baudouin d'Aumeries
Assistance for programming : Marc-Olivier Méhu
Technical & hardware support : Manuel Goepfert

Contact : metmap@orbifly.com




SOURCES & CREDITS :

   NOAA